createdAt,value
2023-05-05T00:00:57.703Z,25.11
2023-05-05T00:03:24.366Z,25.11
2023-05-05T00:05:50.968Z,25.00
2023-05-05T00:08:17.466Z,25.03
2023-05-05T00:10:43.947Z,25.04
2023-05-05T00:13:10.630Z,25.05
2023-05-05T00:15:37.287Z,24.95
2023-05-05T00:18:03.767Z,24.97
2023-05-05T00:20:30.447Z,24.95
2023-05-05T00:22:56.976Z,25.03
2023-05-05T00:25:23.567Z,24.98
2023-05-05T00:27:50.056Z,25.02
2023-05-05T00:30:16.592Z,24.97
2023-05-05T00:32:43.149Z,25.00
2023-05-05T00:35:09.667Z,25.04
2023-05-05T00:37:39.037Z,24.95
2023-05-05T00:40:05.612Z,24.99
2023-05-05T00:42:32.291Z,25.02
2023-05-05T00:44:58.798Z,25.04
2023-05-05T00:47:25.339Z,25.07
2023-05-05T00:49:51.932Z,25.12
2023-05-05T00:52:18.450Z,24.98
2023-05-05T00:54:44.973Z,24.98
2023-05-05T00:57:11.443Z,24.96
2023-05-05T00:59:38.010Z,25.00
2023-05-05T01:02:04.525Z,25.04
2023-05-05T01:04:31.050Z,25.09
2023-05-05T01:06:57.547Z,25.04
2023-05-05T01:09:24.013Z,25.00
2023-05-05T01:11:50.525Z,25.02
2023-05-05T01:14:17.037Z,24.96
2023-05-05T01:16:43.576Z,25.00
2023-05-05T01:19:10.108Z,24.93
2023-05-05T01:21:36.560Z,24.92
2023-05-05T01:24:03.081Z,25.01
2023-05-05T01:26:29.641Z,25.02
2023-05-05T01:28:56.185Z,24.99
2023-05-05T01:31:22.761Z,25.05
2023-05-05T01:33:49.343Z,24.99
2023-05-05T01:36:17.336Z,24.96
2023-05-05T01:38:43.763Z,24.98
2023-05-05T01:41:10.274Z,24.88
2023-05-05T01:43:39.755Z,24.95
2023-05-05T01:46:06.258Z,25.03
2023-05-05T01:48:32.779Z,25.04
2023-05-05T01:50:59.267Z,25.02
2023-05-05T01:53:25.791Z,25.01
2023-05-05T01:55:52.212Z,24.91
2023-05-05T01:58:18.678Z,24.95
2023-05-05T02:00:45.086Z,24.88
2023-05-05T02:03:11.642Z,24.80
2023-05-05T02:05:38.214Z,24.92
2023-05-05T02:08:04.679Z,24.92
2023-05-05T02:10:31.161Z,24.93
2023-05-05T02:12:57.734Z,24.91
2023-05-05T02:15:24.295Z,24.85
2023-05-05T02:17:50.897Z,24.90
2023-05-05T02:20:17.437Z,24.99
2023-05-05T02:22:43.946Z,24.96
2023-05-05T02:25:10.496Z,24.93
2023-05-05T02:27:36.967Z,24.84
2023-05-05T02:30:03.551Z,24.94
2023-05-05T02:32:30.147Z,24.86
2023-05-05T02:34:56.747Z,24.93
2023-05-05T02:37:23.326Z,24.88
2023-05-05T02:39:49.890Z,24.94
2023-05-05T02:42:16.434Z,24.94
2023-05-05T02:44:42.977Z,24.94
2023-05-05T02:47:09.510Z,24.97
2023-05-05T02:49:36.044Z,24.90
2023-05-05T02:52:02.516Z,24.83
2023-05-05T02:54:29.053Z,24.87
2023-05-05T02:56:55.592Z,24.82
2023-05-05T02:59:22.131Z,24.84
2023-05-05T03:01:48.668Z,24.94
2023-05-05T03:04:15.184Z,24.96
2023-05-05T03:06:41.638Z,24.89
2023-05-05T03:09:08.156Z,24.87
2023-05-05T03:11:34.690Z,24.90
2023-05-05T03:14:01.319Z,24.88
2023-05-05T03:16:27.835Z,24.88
2023-05-05T03:18:54.352Z,24.82
2023-05-05T03:21:20.833Z,24.86
2023-05-05T03:23:47.306Z,24.86
2023-05-05T03:26:13.767Z,24.93
2023-05-05T03:28:40.239Z,24.86
2023-05-05T03:31:06.711Z,24.79
2023-05-05T03:33:33.378Z,24.82
2023-05-05T03:35:59.890Z,24.87
2023-05-05T03:38:26.416Z,24.92
2023-05-05T03:40:52.840Z,24.77
2023-05-05T03:43:19.254Z,24.76
2023-05-05T03:45:45.679Z,24.89
2023-05-05T03:48:12.201Z,24.92
2023-05-05T03:50:38.686Z,24.87
2023-05-05T03:53:05.217Z,24.87
2023-05-05T03:55:31.656Z,24.86
2023-05-05T03:57:58.049Z,24.91
2023-05-05T04:00:24.520Z,24.82
2023-05-05T04:02:51.088Z,24.87
2023-05-05T04:05:17.554Z,24.88
2023-05-05T04:07:43.951Z,24.83
2023-05-05T04:10:10.544Z,24.92
2023-05-05T04:12:37.145Z,24.70
2023-05-05T04:17:29.798Z,24.87
2023-05-05T04:19:56.291Z,24.77
2023-05-05T04:22:22.764Z,24.90
2023-05-05T04:24:49.226Z,24.91
2023-05-05T04:27:15.693Z,24.79
2023-05-05T04:29:42.204Z,24.89
2023-05-05T04:32:08.686Z,24.79
2023-05-05T04:34:35.132Z,24.86
2023-05-05T04:37:01.673Z,24.81
2023-05-05T04:39:28.095Z,24.76
2023-05-05T04:41:54.655Z,24.78
2023-05-05T04:44:21.192Z,24.81
2023-05-05T04:46:47.859Z,24.73
2023-05-05T04:49:14.440Z,24.65
2023-05-05T04:51:40.962Z,24.64
2023-05-05T04:54:07.449Z,24.66
2023-05-05T04:56:33.910Z,24.57
2023-05-05T04:59:00.499Z,24.53
2023-05-05T05:01:27.123Z,24.63
2023-05-05T05:03:53.788Z,24.60
2023-05-05T05:06:20.310Z,24.64
2023-05-05T05:08:46.839Z,24.82
2023-05-05T05:11:13.322Z,24.76
2023-05-05T05:13:39.921Z,24.65
2023-05-05T05:16:06.485Z,24.70
2023-05-05T05:18:33.009Z,24.71
2023-05-05T05:20:59.518Z,24.74
2023-05-05T05:23:26.054Z,24.82
2023-05-05T05:25:52.626Z,24.84
2023-05-05T05:28:19.186Z,24.94
2023-05-05T05:30:45.713Z,24.86
2023-05-05T05:33:12.338Z,24.93
2023-05-05T05:35:38.881Z,24.95
2023-05-05T05:38:05.346Z,24.99
2023-05-05T05:40:31.961Z,24.98
2023-05-05T05:42:58.500Z,24.97
2023-05-05T05:45:24.982Z,24.92
2023-05-05T05:47:51.514Z,24.98
2023-05-05T05:50:17.984Z,24.91
2023-05-05T05:52:44.553Z,24.92
2023-05-05T05:55:11.134Z,24.92
2023-05-05T07:25:51.204Z,25.07
2023-05-05T07:28:17.694Z,25.03
2023-05-05T07:30:44.293Z,24.97
2023-05-05T07:33:10.890Z,24.97
2023-05-05T07:35:37.443Z,24.99
2023-05-05T07:38:03.916Z,25.02
2023-05-05T07:40:30.452Z,25.09
2023-05-05T07:42:56.962Z,25.15
2023-05-05T07:45:23.507Z,25.11
2023-05-05T07:47:50.083Z,25.16
2023-05-05T07:50:16.544Z,25.23
2023-05-05T07:52:48.373Z,25.27
2023-05-05T07:55:20.317Z,25.13
2023-05-05T07:57:46.860Z,25.08
2023-05-05T08:00:13.411Z,25.09
2023-05-05T08:02:40.105Z,25.10
2023-05-05T08:05:07.019Z,25.16
2023-05-05T08:07:33.656Z,25.20
2023-05-05T08:10:00.225Z,25.26
2023-05-05T08:12:26.716Z,25.14
2023-05-05T08:14:53.234Z,25.19
2023-05-05T08:17:19.768Z,25.04
2023-05-05T08:19:46.278Z,25.11
2023-05-05T08:22:12.733Z,25.05
2023-05-05T08:24:39.192Z,25.14
2023-05-05T08:27:05.774Z,25.07
2023-05-05T08:29:32.222Z,25.14
2023-05-05T08:31:59.000Z,25.15
2023-05-05T08:34:25.520Z,25.06
2023-05-05T08:36:52.032Z,25.21
2023-05-05T08:39:18.502Z,25.23
2023-05-05T08:41:45.010Z,25.15
2023-05-05T08:44:11.520Z,25.15
2023-05-05T08:46:38.039Z,25.20
2023-05-05T08:49:04.609Z,25.26
2023-05-05T08:51:31.117Z,25.16
2023-05-05T08:53:57.581Z,25.08
2023-05-05T08:56:24.122Z,25.08
2023-05-05T08:58:50.593Z,25.12
2023-05-05T09:01:17.184Z,25.25
2023-05-05T09:03:44.165Z,25.19
2023-05-05T09:06:10.670Z,25.21
2023-05-05T09:08:37.093Z,25.22
2023-05-05T09:11:03.567Z,25.24
2023-05-05T09:13:30.055Z,25.27
2023-05-05T09:15:56.561Z,25.25
2023-05-05T09:18:23.008Z,25.30
2023-05-05T09:20:49.473Z,25.39
2023-05-05T09:23:15.930Z,25.38
2023-05-05T09:25:42.414Z,25.41
2023-05-05T09:28:08.889Z,25.25
2023-05-05T09:30:35.450Z,25.26
2023-05-05T09:33:01.943Z,25.28
2023-05-05T09:35:28.416Z,25.31
2023-05-05T09:37:54.916Z,25.27
2023-05-05T09:40:21.576Z,25.24
2023-05-05T09:42:48.210Z,25.40
2023-05-05T09:45:14.684Z,25.41
2023-05-05T09:47:41.238Z,25.44
2023-05-05T09:50:08.106Z,25.42
2023-05-05T09:52:34.788Z,25.42
2023-05-05T09:55:01.255Z,25.42
2023-05-05T09:57:27.776Z,25.43
2023-05-05T09:59:54.350Z,25.41
2023-05-05T10:02:20.817Z,25.36
2023-05-05T10:04:47.947Z,25.35
2023-05-05T10:07:14.521Z,25.36
2023-05-05T10:09:41.101Z,25.37
2023-05-05T10:12:07.669Z,25.36
2023-05-05T10:14:34.168Z,25.31
2023-05-05T10:17:00.607Z,25.32
2023-05-05T10:19:27.096Z,25.31
2023-05-05T10:21:53.624Z,25.25
2023-05-05T10:24:20.106Z,25.30
2023-05-05T10:26:46.521Z,25.31
2023-05-05T10:29:12.958Z,25.31
2023-05-05T10:31:39.529Z,25.33
2023-05-05T10:34:06.070Z,25.32
2023-05-05T10:36:32.693Z,25.34
2023-05-05T10:38:59.140Z,25.35
2023-05-05T10:41:25.625Z,25.34
2023-05-05T10:43:52.222Z,25.36
2023-05-05T10:46:18.815Z,25.34
2023-05-05T10:48:45.299Z,25.30
2023-05-05T10:51:11.870Z,25.32
2023-05-05T10:53:38.390Z,25.34
2023-05-05T10:56:04.957Z,25.35
2023-05-05T10:58:31.470Z,25.36
2023-05-05T11:00:58.040Z,25.40
2023-05-05T11:03:24.656Z,25.33
2023-05-05T11:05:51.166Z,25.35
2023-05-05T11:08:17.612Z,25.36
2023-05-05T11:10:44.242Z,25.36
2023-05-05T11:13:10.822Z,25.37
2023-05-05T14:11:41.562Z,25.88
2023-05-05T14:14:08.126Z,25.96
2023-05-05T14:16:34.765Z,25.94
2023-05-05T14:19:01.292Z,26.11
2023-05-05T14:21:27.838Z,26.15
2023-05-05T14:23:54.401Z,26.09
2023-05-05T14:26:20.970Z,26.08
2023-05-05T14:28:49.755Z,26.17
2023-05-05T14:31:16.657Z,26.27
2023-05-05T14:33:43.099Z,26.36
2023-05-05T14:36:09.720Z,26.50
2023-05-05T14:38:36.316Z,26.50
2023-05-05T14:41:02.886Z,26.50
2023-05-05T14:43:29.367Z,26.45
2023-05-05T14:45:55.899Z,26.57
2023-05-05T14:48:22.667Z,26.55
2023-05-05T14:50:49.348Z,26.62
2023-05-05T14:53:15.844Z,26.69
2023-05-05T14:55:42.310Z,26.74
2023-05-05T14:58:09.425Z,26.82
2023-05-05T15:00:35.999Z,26.87
2023-05-05T15:03:02.586Z,26.95
2023-05-05T15:05:29.223Z,27.08
2023-05-05T15:07:55.786Z,27.21
2023-05-05T15:10:22.289Z,27.26
2023-05-05T15:12:48.820Z,27.41
2023-05-05T15:15:15.340Z,27.51
2023-05-05T15:17:41.874Z,27.49
2023-05-05T15:20:08.458Z,27.54
2023-05-05T15:22:34.974Z,27.65
2023-05-05T15:25:01.564Z,27.58
2023-05-05T15:27:28.163Z,27.50
2023-05-05T15:29:54.615Z,27.61
2023-05-05T15:32:21.062Z,27.72
2023-05-05T15:34:49.571Z,27.77
2023-05-05T15:37:16.810Z,27.67
2023-05-05T15:39:43.277Z,27.76
2023-05-05T15:42:09.719Z,27.81
2023-05-05T15:44:36.145Z,27.74
2023-05-05T15:47:02.705Z,27.42
2023-05-05T15:49:29.256Z,27.10
2023-05-05T15:51:55.917Z,26.78
2023-05-05T15:54:22.452Z,26.63
2023-05-05T15:56:48.961Z,26.47
2023-05-05T15:59:15.447Z,26.38
2023-05-05T16:01:41.907Z,26.32
2023-05-05T16:04:08.455Z,26.28
2023-05-05T16:06:34.983Z,26.23
2023-05-05T16:09:01.418Z,26.28
2023-05-05T16:11:27.899Z,26.31
2023-05-05T16:13:54.417Z,26.39
2023-05-05T16:16:20.926Z,26.37
2023-05-05T16:18:47.512Z,26.33
2023-05-05T16:21:13.977Z,26.25
2023-05-05T16:23:40.488Z,26.24
2023-05-05T16:26:06.953Z,26.73
2023-05-05T16:28:33.476Z,26.91
2023-05-05T16:30:59.967Z,27.28
2023-05-05T16:33:26.470Z,27.50
2023-05-05T16:35:53.023Z,27.04
2023-05-05T16:38:19.602Z,26.87
2023-05-05T16:40:46.146Z,26.63
2023-05-05T16:43:12.664Z,26.68
2023-05-05T16:45:39.209Z,26.81
2023-05-05T16:48:07.499Z,26.59
2023-05-05T16:50:35.550Z,26.72
2023-05-05T16:53:02.037Z,26.67
2023-05-05T16:55:28.553Z,26.76
2023-05-05T16:57:55.015Z,26.73
2023-05-05T17:00:21.452Z,26.61
2023-05-05T17:02:47.958Z,26.43
2023-05-05T17:05:14.547Z,26.42
2023-05-05T17:07:41.032Z,26.30
2023-05-05T17:10:07.531Z,26.36
2023-05-05T17:12:33.999Z,26.37
2023-05-05T17:15:00.469Z,26.41
2023-05-05T17:17:26.972Z,26.29
2023-05-05T17:19:53.489Z,26.39
2023-05-05T17:22:19.945Z,26.37
2023-05-05T17:24:46.393Z,26.31
2023-05-05T17:27:12.889Z,26.26
2023-05-05T17:29:39.406Z,26.24
2023-05-05T17:32:06.046Z,26.02
2023-05-05T17:34:32.668Z,25.92
2023-05-05T17:36:59.132Z,25.90
2023-05-05T17:39:25.577Z,25.92
2023-05-05T17:41:51.984Z,25.87
2023-05-05T17:44:18.387Z,25.91
2023-05-05T17:46:44.936Z,25.86
2023-05-05T17:49:11.542Z,25.81
2023-05-05T17:51:38.047Z,25.84
2023-05-05T17:54:04.511Z,25.96
2023-05-05T17:56:30.949Z,25.75
2023-05-05T17:58:57.419Z,25.75
2023-05-05T18:01:24.022Z,25.71
2023-05-05T18:03:50.599Z,25.69
2023-05-05T18:06:17.185Z,25.64
2023-05-05T18:08:43.756Z,25.67
2023-05-05T18:11:10.188Z,25.63
2023-05-05T18:13:36.649Z,25.61
2023-05-05T18:16:03.158Z,25.62
2023-05-05T18:18:29.783Z,25.62
2023-05-05T18:20:56.248Z,25.66
2023-05-05T18:23:22.707Z,25.63
2023-05-05T18:25:49.273Z,25.57
2023-05-05T18:28:15.805Z,25.55
2023-05-05T18:30:42.329Z,25.51
2023-05-05T18:33:08.842Z,25.51
2023-05-05T18:35:35.380Z,25.53
2023-05-05T18:38:01.975Z,25.61
2023-05-05T18:40:28.454Z,25.57
2023-05-05T18:42:54.975Z,25.61
2023-05-05T18:45:21.506Z,25.59
2023-05-05T18:47:48.117Z,25.63
2023-05-05T18:50:14.660Z,25.61
2023-05-05T18:52:41.192Z,25.59
2023-05-05T18:55:07.913Z,25.57
2023-05-05T18:57:34.603Z,25.59
2023-05-05T19:00:01.099Z,25.61
2023-05-05T19:02:27.692Z,25.59
2023-05-05T19:04:54.245Z,25.62
2023-05-05T19:07:33.776Z,25.57
2023-05-05T19:10:01.387Z,25.57
2023-05-05T19:12:27.927Z,25.55
2023-05-05T19:14:54.417Z,25.54
2023-05-05T19:17:20.985Z,25.52
2023-05-05T19:19:47.498Z,25.53
2023-05-05T19:22:14.081Z,25.48
2023-05-05T19:24:40.616Z,25.49
2023-05-05T19:27:07.059Z,25.46
